Time;durP1;ratioP1;P1;durP2;ratioP2;P2;SDS_P1;SDS_P2;PMS_P1;PMS_P2;Temp;Humidity;BMP_temperature;BMP_pressure;BME280_temperature;BME280_humidity;BME280_pressure;Samples;Min_cycle;Max_cycle;Signal;HPM_P1;HPM_P2
2023/09/16 00:03:28;;;;;;;;;;;19.20;46.60;;;18.47;47.64;101625.50;12150864;19;20010;-87
2023/09/16 00:07:31;;;;;;;;;;;19.10;46.60;;;18.31;47.86;101603.78;12148153;19;19933;-87
2023/09/16 00:11:32;;;;;;;;;;;19.10;46.50;;;18.36;47.87;101620.13;12155361;19;20329;-87
2023/09/16 00:15:34;;;;;;;;;;;19.00;46.50;;;18.31;48.06;101631.06;12159797;19;20006;-87
2023/09/16 00:19:35;;;;;;;;;;;19.00;46.50;;;18.23;47.90;101619.38;12158390;19;20320;-87
2023/09/16 00:23:38;;;;;;;;;;;19.00;46.70;;;18.19;48.16;101621.38;12160874;19;19959;-87
2023/09/16 00:27:39;;;;;;;;;;;18.90;46.60;;;18.02;48.06;101593.53;12156009;19;20764;-87
2023/09/16 00:31:41;;;;;;;;;;;18.80;46.60;;;18.06;48.13;101605.56;12152084;19;19931;-87
2023/09/16 00:35:42;;;;;;;;;;;18.80;46.70;;;17.97;48.08;101594.81;12154999;19;20728;-87
2023/09/16 00:39:44;;;;;;;;;;;18.70;46.70;;;17.99;47.88;101603.50;12146698;19;19999;-88
2023/09/16 00:43:46;;;;;;;;;;;18.70;46.70;;;17.89;48.12;101603.31;12146039;19;20295;-87
2023/09/16 00:47:48;;;;;;;;;;;18.70;46.70;;;17.84;47.92;101598.34;12145243;19;19941;-88
2023/09/16 00:51:49;;;;;;;;;;;18.60;46.60;;;17.85;48.14;101604.50;12143790;19;19959;-87
2023/09/16 00:55:51;;;;;;;;;;;18.60;47.10;;;17.85;48.36;101612.44;12143668;19;19915;-87
2023/09/16 00:59:53;;;;;;;;;;;18.50;46.70;;;17.79;48.08;101607.56;12142984;19;19997;-88
2023/09/16 01:03:55;;;;;;;;;;;18.50;46.70;;;17.71;48.29;101586.94;12146936;19;20766;-87
2023/09/16 01:07:57;;;;;;;;;;;18.50;46.70;;;17.70;48.27;101595.81;12141824;19;20728;-87
2023/09/16 01:11:59;;;;;;;;;;;18.50;46.70;;;17.62;48.43;101593.72;12143931;19;20031;-87
2023/09/16 01:16:11;;;;;;;;;;;18.40;46.70;;;17.57;48.33;101587.06;12145782;19;20931;-88
2023/09/16 01:20:13;;;;;;;;;;;18.40;46.80;;;17.57;48.45;101593.19;12141223;19;20263;-88
2023/09/16 01:24:23;;;;;;;;;;;18.30;46.80;;;17.57;48.23;101590.56;12145122;19;19923;-88
2023/09/16 01:28:26;;;;;;;;;;;18.30;46.90;;;17.54;48.32;101588.13;12145110;19;20460;-88
2023/09/16 01:32:34;;;;;;;;;;;18.30;46.90;;;17.41;48.21;101568.84;12144518;19;19930;-88
2023/09/16 01:36:38;;;;;;;;;;;18.20;46.70;;;17.32;48.45;101565.03;12145115;19;20018;-88
2023/09/16 01:40:42;;;;;;;;;;;18.20;46.80;;;17.36;48.23;101578.88;12141307;19;20130;-88
2023/09/16 01:44:44;;;;;;;;;;;18.10;46.80;;;17.29;48.48;101569.72;12144888;19;20203;-88
2023/09/16 01:48:45;;;;;;;;;;;18.00;46.80;;;17.29;48.55;101572.34;12143838;19;20282;-88
2023/09/16 01:52:47;;;;;;;;;;;18.00;46.80;;;17.22;48.27;101561.34;12145227;19;20427;-88
2023/09/16 01:56:49;;;;;;;;;;;18.00;46.90;;;17.17;48.48;101568.75;12138010;19;20679;-88
2023/09/16 02:00:50;;;;;;;;;;;18.00;46.90;;;17.14;48.60;101563.69;12138858;19;19930;-88
2023/09/16 02:04:52;;;;;;;;;;;17.90;46.90;;;16.96;48.64;101545.56;12140044;19;19927;-88
2023/09/16 02:08:54;;;;;;;;;;;17.80;46.80;;;17.06;48.30;101572.13;12139165;19;19923;-88
2023/09/16 02:12:55;;;;;;;;;;;17.80;46.90;;;17.03;48.52;101575.81;12143338;19;19925;-88
2023/09/16 02:16:59;;;;;;;;;;;17.80;46.90;;;16.90;48.58;101559.16;12141681;19;20790;-88
2023/09/16 02:21:00;;;;;;;;;;;17.70;46.90;;;16.88;48.39;101558.44;12138449;19;20191;-88
2023/09/16 02:25:02;;;;;;;;;;;17.70;47.00;;;16.88;48.65;101557.59;12139480;19;20006;-88
2023/09/16 02:29:04;;;;;;;;;;;17.60;47.00;;;16.83;48.56;101555.25;12139603;19;20974;-88
2023/09/16 02:33:06;;;;;;;;;;;17.60;46.90;;;16.81;48.60;101562.41;12141590;19;20315;-88
2023/09/16 02:37:08;;;;;;;;;;;17.60;47.00;;;16.72;48.63;101548.03;12141420;19;19947;-88
2023/09/16 02:41:10;;;;;;;;;;;17.50;46.90;;;16.68;48.59;101550.97;12136970;19;19919;-88
2023/09/16 02:45:11;;;;;;;;;;;17.50;47.10;;;16.66;48.75;101548.47;12139096;19;20368;-88
2023/09/16 02:49:13;;;;;;;;;;;17.40;47.00;;;16.64;48.85;101552.16;12138157;19;19930;-88
2023/09/16 02:53:17;;;;;;;;;;;17.40;47.10;;;16.54;48.59;101539.56;12139872;19;19931;-87
2023/09/16 02:57:19;;;;;;;;;;;17.40;47.10;;;16.52;48.71;101524.78;12133219;19;20228;-87
2023/09/16 03:01:20;;;;;;;;;;;17.30;47.10;;;16.47;48.80;101511.94;12139483;19;20195;-87
2023/09/16 03:05:22;;;;;;;;;;;17.30;47.10;;;16.43;48.76;101520.16;12136943;19;19927;-87
2023/09/16 03:09:24;;;;;;;;;;;17.30;47.10;;;16.44;48.77;101533.22;12136634;19;19919;-87
2023/09/16 03:13:26;;;;;;;;;;;17.30;47.20;;;16.32;48.80;101515.59;12140277;19;20345;-87
2023/09/16 03:17:27;;;;;;;;;;;17.20;47.20;;;16.37;49.07;101527.53;12139351;19;19971;-87
2023/09/16 03:21:29;;;;;;;;;;;17.20;47.20;;;16.29;48.81;101511.38;12134932;19;19926;-87
2023/09/16 03:25:39;;;;;;;;;;;17.20;47.20;;;16.24;49.02;101510.00;12137721;19;19943;-87
2023/09/16 03:29:43;;;;;;;;;;;17.10;47.20;;;16.28;48.94;101529.91;12135283;19;20221;-87
2023/09/16 03:33:46;;;;;;;;;;;17.10;47.20;;;16.26;48.88;101524.75;12135587;19;19915;-87
2023/09/16 03:37:48;;;;;;;;;;;17.10;47.20;;;16.22;49.05;101519.78;12137486;19;19947;-87
2023/09/16 03:41:49;;;;;;;;;;;17.00;47.30;;;16.20;48.98;101514.59;12137549;19;19937;-87
2023/09/16 03:45:52;;;;;;;;;;;17.10;47.30;;;16.00;49.07;101479.03;12137329;19;19919;-87
2023/09/16 03:49:54;;;;;;;;;;;17.00;47.20;;;16.18;49.18;101516.53;12135250;19;19926;-88
2023/09/16 03:53:55;;;;;;;;;;;17.00;47.30;;;16.09;48.92;101498.66;12139647;19;20299;-87
2023/09/16 03:57:57;;;;;;;;;;;17.00;47.30;;;16.05;49.02;101484.03;12136226;19;19922;-87
2023/09/16 04:01:59;;;;;;;;;;;16.90;47.20;;;15.95;49.08;101472.41;12137754;19;20025;-87
2023/09/16 04:06:04;;;;;;;;;;;16.90;47.20;;;15.96;49.12;101479.34;12135040;19;20255;-87
2023/09/16 04:10:07;;;;;;;;;;;16.90;47.30;;;15.93;49.11;101483.88;12133741;19;19927;-87
2023/09/16 04:14:08;;;;;;;;;;;16.80;47.20;;;15.94;49.05;101487.34;12134789;19;20006;-87
2023/09/16 04:18:10;;;;;;;;;;;16.80;47.20;;;15.86;49.32;101479.94;12135766;19;20376;-88
2023/09/16 04:22:11;;;;;;;;;;;16.80;47.30;;;15.88;49.11;101485.13;12134825;19;19952;-87
2023/09/16 04:26:15;;;;;;;;;;;16.70;47.30;;;15.82;49.13;101490.78;12133054;19;19918;-87
2023/09/16 04:30:19;;;;;;;;;;;16.70;47.30;;;15.70;49.18;101480.09;12132125;19;20259;-88
2023/09/16 04:34:21;;;;;;;;;;;16.70;47.30;;;15.78;49.25;101498.03;12135072;19;20165;-87
2023/09/16 04:38:23;;;;;;;;;;;16.60;47.30;;;15.68;49.22;101496.91;12131887;19;20384;-88
2023/09/16 04:42:30;;;;;;;;;;;16.60;47.30;;;15.71;49.38;101502.00;12135529;19;20172;-87
2023/09/16 04:46:33;;;;;;;;;;;16.60;47.30;;;15.65;49.38;101495.31;12143936;19;19919;-88
2023/09/16 04:50:45;;;;;;;;;;;16.50;47.30;;;15.57;49.02;101491.50;12143696;19;20762;-88
2023/09/16 04:54:50;;;;;;;;;;;16.50;47.30;;;15.57;49.25;101491.50;12146837;19;19922;-87
2023/09/16 04:58:52;;;;;;;;;;;16.50;47.40;;;15.59;49.32;101497.50;12144682;19;20465;-87
2023/09/16 05:02:54;;;;;;;;;;;16.50;47.40;;;15.56;49.33;101497.72;12148538;19;20013;-83
2023/09/16 05:06:55;;;;;;;;;;;16.40;47.50;;;15.46;49.51;101495.66;12137091;19;19922;-83
2023/09/16 05:11:00;;;;;;;;;;;16.40;47.50;;;15.37;49.51;101490.13;12132912;19;20107;-83
2023/09/16 05:15:04;;;;;;;;;;;16.30;47.50;;;15.42;49.50;101503.84;12138117;19;20236;-83
2023/09/16 05:19:06;;;;;;;;;;;16.30;47.60;;;15.39;49.71;101499.63;12135771;19;19926;-83
2023/09/16 05:23:12;;;;;;;;;;;16.30;47.70;;;15.36;49.55;101501.59;12137044;19;19922;-83
2023/09/16 05:27:14;;;;;;;;;;;16.30;47.80;;;15.38;49.63;101510.25;12129704;19;20741;-83
2023/09/16 05:31:15;;;;;;;;;;;16.30;47.70;;;15.35;49.48;101499.91;12131677;19;20252;-84
2023/09/16 05:35:18;;;;;;;;;;;16.30;47.90;;;15.36;49.64;101505.06;12138277;19;20151;-83
2023/09/16 05:39:20;;;;;;;;;;;16.30;48.10;;;15.37;49.66;101504.13;12133352;19;19922;-84
2023/09/16 05:43:23;;;;;;;;;;;16.30;48.00;;;15.24;49.75;101487.44;12144851;19;19952;-88
2023/09/16 05:47:27;;;;;;;;;;;16.30;48.20;;;15.43;49.82;101505.53;12143702;19;20542;-87
2023/09/16 05:51:29;;;;;;;;;;;16.30;48.10;;;15.42;49.77;101501.22;12136840;19;20217;-87
2023/09/16 05:55:33;;;;;;;;;;;16.40;48.20;;;15.49;49.89;101513.03;12138903;19;19922;-86
2023/09/16 05:59:37;;;;;;;;;;;16.40;48.20;;;15.47;49.89;101502.63;12140201;19;20037;-86
2023/09/16 06:03:38;;;;;;;;;;;16.50;48.30;;;15.55;49.89;101511.78;12135555;19;20030;-86
2023/09/16 06:07:41;;;;;;;;;;;16.50;48.20;;;15.55;49.88;101502.09;12141626;19;19934;-86
2023/09/16 06:11:44;;;;;;;;;;;16.50;48.20;;;15.69;49.96;101520.56;12132583;19;19937;-86
2023/09/16 06:15:46;;;;;;;;;;;16.60;48.30;;;15.72;49.94;101514.25;12137096;19;20187;-87
2023/09/16 06:19:51;;;;;;;;;;;16.70;48.30;;;15.77;50.08;101519.19;12136942;19;21003;-88
2023/09/16 06:23:53;;;;;;;;;;;16.80;48.30;;;15.76;50.21;101499.94;12142956;19;20780;-87
2023/09/16 06:27:56;;;;;;;;;;;16.90;48.30;;;15.92;50.22;101520.84;12134139;19;20179;-87
2023/09/16 06:31:58;;;;;;;;;;;17.00;48.30;;;16.04;50.13;101524.47;12142425;19;19950;-87
2023/09/16 06:36:00;;;;;;;;;;;17.00;48.40;;;16.10;50.14;101518.81;12143626;19;19919;-86
2023/09/16 06:40:02;;;;;;;;;;;17.10;48.40;;;16.13;50.31;101510.72;12139500;19;20671;-86
2023/09/16 06:44:04;;;;;;;;;;;17.20;48.30;;;16.27;50.14;101517.69;12142736;19;19919;-86
2023/09/16 06:48:06;;;;;;;;;;;17.30;48.40;;;16.37;50.42;101532.78;12139750;19;19922;-86
2023/09/16 06:52:07;;;;;;;;;;;17.40;48.40;;;16.42;50.41;101518.44;12144808;19;19926;-86
2023/09/16 06:56:09;;;;;;;;;;;17.50;48.40;;;16.55;50.32;101525.47;12143358;19;19919;-88
2023/09/16 07:00:13;;;;;;;;;;;17.60;48.50;;;16.59;50.32;101511.09;12143033;19;20299;-86
2023/09/16 07:04:15;;;;;;;;;;;17.70;48.50;;;16.52;50.31;101488.72;12142045;19;20754;-86
2023/09/16 07:08:18;;;;;;;;;;;17.80;48.70;;;16.81;50.48;101514.94;12141662;19;19922;-86
2023/09/16 07:12:20;;;;;;;;;;;17.90;48.60;;;16.79;50.57;101507.13;12148610;19;19923;-87
2023/09/16 07:16:38;;;;;;;;;;;18.00;48.60;;;16.99;50.53;101513.66;12138382;19;19926;-85
2023/09/16 07:20:40;;;;;;;;;;;18.00;48.60;;;17.05;50.53;101507.13;12134192;19;19918;-87
2023/09/16 07:24:41;;;;;;;;;;;18.20;49.00;;;17.22;50.76;101522.59;12136121;19;19933;-84
2023/09/16 07:28:43;;;;;;;;;;;18.30;48.60;;;17.29;50.83;101503.72;12142752;19;19927;-87
2023/09/16 07:32:44;;;;;;;;;;;18.40;48.60;;;17.39;50.74;101517.91;12138158;19;20384;-86
2023/09/16 07:36:46;;;;;;;;;;;18.50;48.60;;;17.56;50.64;101520.22;12142807;19;19947;-86
2023/09/16 07:40:50;;;;;;;;;;;18.60;48.70;;;17.60;50.88;101502.34;12141650;19;20748;-87
2023/09/16 07:44:52;;;;;;;;;;;18.70;48.60;;;17.81;50.83;101510.53;12140589;19;20919;-88
2023/09/16 07:48:53;;;;;;;;;;;18.90;48.90;;;17.83;51.07;101492.78;12141047;19;19957;-86
2023/09/16 07:52:55;;;;;;;;;;;19.10;48.80;;;18.06;51.04;101494.53;12139519;19;19922;-86
2023/09/16 07:56:56;;;;;;;;;;;19.20;48.80;;;18.30;51.02;101493.66;12142397;19;19923;-87
2023/09/16 08:00:58;;;;;;;;;;;19.40;48.90;;;18.43;50.96;101494.44;12136991;19;19982;-87
2023/09/16 08:05:00;;;;;;;;;;;19.60;48.90;;;18.55;50.92;101480.28;12138809;19;20756;-87
2023/09/16 08:09:01;;;;;;;;;;;19.80;49.00;;;18.75;51.25;101480.56;12139441;19;19950;-87
2023/09/16 08:13:03;;;;;;;;;;;20.00;48.90;;;18.95;51.07;101476.34;12138407;19;19933;-87
2023/09/16 08:17:05;;;;;;;;;;;20.20;48.90;;;19.19;51.09;101489.47;12139425;19;19918;-87
2023/09/16 08:21:06;;;;;;;;;;;20.40;48.90;;;19.31;50.94;101477.91;12146481;19;20200;-86
2023/09/16 08:25:08;;;;;;;;;;;20.60;49.20;;;19.15;51.05;101437.72;12136186;19;20448;-86
2023/09/16 08:29:09;;;;;;;;;;;20.70;48.80;;;19.68;51.10;101482.88;12144548;19;19930;-87
2023/09/16 08:33:11;;;;;;;;;;;20.90;48.80;;;19.88;51.08;101487.41;12151047;19;20697;-87
2023/09/16 08:37:13;;;;;;;;;;;21.10;48.80;;;20.09;51.33;101486.56;12152649;19;20051;-87
2023/09/16 08:41:21;;;;;;;;;;;21.30;48.80;;;20.32;51.02;101488.16;12143307;19;21608;-87
2023/09/16 08:45:25;;;;;;;;;;;21.50;48.90;;;20.50;51.14;101484.94;12143253;19;20198;-86
2023/09/16 08:49:28;;;;;;;;;;;21.70;48.80;;;20.67;50.97;101484.34;12146593;19;19925;-88
2023/09/16 08:53:31;;;;;;;;;;;21.90;48.60;;;20.80;51.19;101472.69;12147255;19;19934;-87
2023/09/16 08:57:33;;;;;;;;;;;22.10;48.60;;;21.00;51.26;101471.75;12146236;19;19926;-88
2023/09/16 09:01:34;;;;;;;;;;;22.30;48.60;;;21.21;51.16;101480.50;12140935;19;20269;-87
2023/09/16 09:05:37;;;;;;;;;;;22.50;48.60;;;21.43;51.09;101475.97;12148825;19;19919;-88
2023/09/16 09:09:38;;;;;;;;;;;22.60;48.40;;;21.57;51.11;101470.25;12149746;19;19955;-89
2023/09/16 09:13:42;;;;;;;;;;;22.80;48.40;;;21.73;50.90;101464.38;12148017;19;20196;-88
2023/09/16 09:17:50;;;;;;;;;;;23.00;48.40;;;21.94;50.88;101464.25;12148155;19;19923;-89
2023/09/16 09:21:53;;;;;;;;;;;23.20;48.30;;;22.05;51.01;101450.81;12147419;19;19930;-88
2023/09/16 09:25:56;;;;;;;;;;;23.40;48.20;;;22.30;50.54;101459.19;12144960;19;20334;-87
2023/09/16 09:29:58;;;;;;;;;;;23.60;48.10;;;22.37;50.83;101439.03;12139565;19;20707;-88
2023/09/16 09:34:00;;;;;;;;;;;23.70;48.10;;;22.64;50.78;101456.03;12145022;19;19941;-87
2023/09/16 09:38:02;;;;;;;;;;;23.90;48.00;;;22.84;50.95;101456.78;12143269;19;20470;-87
2023/09/16 09:42:03;;;;;;;;;;;24.00;48.00;;;22.98;51.04;101445.69;12144235;19;19947;-88
2023/09/16 09:46:05;;;;;;;;;;;24.20;48.10;;;23.17;50.75;101437.59;12146555;19;20811;-88
2023/09/16 09:50:14;;;;;;;;;;;24.40;47.90;;;23.33;50.69;101430.75;12144208;19;20612;-87
2023/09/16 09:54:17;;;;;;;;;;;24.60;47.90;;;23.50;50.81;101431.75;12144915;19;20370;-87
2023/09/16 09:58:19;;;;;;;;;;;24.70;47.90;;;23.69;50.58;101418.28;12143473;19;19919;-87
2023/09/16 10:02:26;;;;;;;;;;;24.90;47.90;;;23.89;50.25;101415.47;12143951;19;20005;-88
2023/09/16 10:06:27;;;;;;;;;;;25.10;47.50;;;23.98;50.51;101406.50;12143515;19;20255;-87
2023/09/16 10:10:30;;;;;;;;;;;25.30;47.50;;;24.16;50.28;101415.31;12143554;19;20355;-88
2023/09/16 10:14:33;;;;;;;;;;;25.40;47.60;;;24.27;50.25;101401.69;12143297;19;19919;-88
2023/09/16 10:18:35;;;;;;;;;;;25.60;47.60;;;24.20;50.51;101357.13;12140836;19;19954;-88
2023/09/16 10:22:39;;;;;;;;;;;25.80;47.50;;;24.64;50.22;101411.28;12141060;19;19922;-88
2023/09/16 10:26:40;;;;;;;;;;;25.90;47.20;;;24.72;50.15;101395.28;12133504;19;20219;-88
2023/09/16 10:30:42;;;;;;;;;;;25.90;47.00;;;24.78;50.11;101391.13;12138854;19;19918;-88
2023/09/16 10:34:47;;;;;;;;;;;26.10;47.20;;;25.02;50.07;101398.41;12141104;19;20219;-87
2023/09/16 10:38:50;;;;;;;;;;;26.20;46.90;;;25.11;49.78;101385.88;12140917;19;19930;-88
2023/09/16 10:42:52;;;;;;;;;;;26.40;46.60;;;25.25;49.62;101387.09;12141876;19;20204;-88
2023/09/16 10:46:54;;;;;;;;;;;26.50;46.80;;;25.26;49.78;101367.41;12139317;19;19945;-88
2023/09/16 10:50:59;;;;;;;;;;;26.50;46.90;;;25.39;49.61;101373.94;12136514;19;20338;-88
2023/09/16 10:55:08;;;;;;;;;;;26.60;47.00;;;25.40;49.63;101348.03;12140161;19;20034;-87
2023/09/16 10:59:10;;;;;;;;;;;26.80;47.00;;;25.67;49.79;101370.09;12138212;19;20409;-88
2023/09/16 11:03:15;;;;;;;;;;;26.80;46.80;;;25.74;49.65;101361.22;12139376;19;19915;-87
2023/09/16 11:07:18;;;;;;;;;;;27.00;46.90;;;25.88;49.45;101357.06;12137378;19;20032;-87
2023/09/16 11:11:21;;;;;;;;;;;27.10;46.20;;;26.03;49.17;101363.41;12137143;19;19951;-88
2023/09/16 11:15:29;;;;;;;;;;;27.20;46.50;;;26.01;49.37;101340.50;12139849;19;20241;-88
2023/09/16 11:19:30;;;;;;;;;;;27.30;46.50;;;26.18;49.06;101349.31;12132852;19;20026;-88
2023/09/16 11:23:32;;;;;;;;;;;27.40;46.50;;;26.23;49.10;101333.56;12130640;19;19945;-87
2023/09/16 11:27:34;;;;;;;;;;;27.40;46.60;;;26.38;49.04;101334.50;12127326;19;19923;-87
2023/09/16 11:31:35;;;;;;;;;;;27.50;45.80;;;26.44;49.11;101328.47;12126636;19;19919;-85
2023/09/16 11:35:38;;;;;;;;;;;27.60;46.40;;;26.59;48.79;101344.66;12125242;19;19922;-85
2023/09/16 11:39:46;;;;;;;;;;;27.70;45.50;;;26.61;48.79;101315.00;12127490;19;20366;-87
2023/09/16 11:43:47;;;;;;;;;;;27.70;46.20;;;26.69;48.70;101323.84;12131874;19;20384;-87
2023/09/16 11:47:49;;;;;;;;;;;27.80;45.90;;;26.79;48.72;101323.63;12126379;19;20263;-87
2023/09/16 11:51:51;;;;;;;;;;;27.90;46.00;;;26.90;48.51;101317.03;12136849;19;19923;-87
2023/09/16 11:55:52;;;;;;;;;;;27.90;45.10;;;26.78;48.51;101283.59;12142676;19;20688;-88
2023/09/16 11:59:54;;;;;;;;;;;28.00;45.90;;;27.00;48.24;101309.56;12139643;19;20300;-87
2023/09/16 12:03:56;;;;;;;;;;;28.00;46.00;;;27.05;48.28;101295.63;12143110;19;19923;-88
2023/09/16 12:07:58;;;;;;;;;;;28.10;45.80;;;27.12;48.05;101286.69;12135361;19;20179;-87
2023/09/16 12:12:01;;;;;;;;;;;28.20;46.00;;;27.10;47.97;101269.94;12142096;19;20279;-87
2023/09/16 12:16:02;;;;;;;;;;;28.30;46.00;;;27.27;48.00;101281.41;12143311;19;19948;-87
2023/09/16 12:20:04;;;;;;;;;;;28.30;44.80;;;27.36;48.00;101288.38;12141478;19;19918;-87
2023/09/16 12:24:06;;;;;;;;;;;28.40;45.40;;;27.41;47.86;101274.41;12144473;19;20288;-87
2023/09/16 12:28:16;;;;;;;;;;;28.40;45.50;;;27.25;47.76;101234.34;12141608;19;20447;-88
2023/09/16 12:32:18;;;;;;;;;;;28.40;45.60;;;27.51;47.92;101264.25;12147189;19;20356;-88
2023/09/16 12:36:23;;;;;;;;;;;28.40;45.60;;;27.60;47.71;101270.38;12144083;19;19927;-88
2023/09/16 12:40:24;;;;;;;;;;;28.60;45.40;;;27.66;47.97;101264.28;12138702;19;20250;-88
2023/09/16 12:44:26;;;;;;;;;;;28.60;45.40;;;27.67;47.49;101260.56;12143833;19;20702;-88
2023/09/16 12:48:29;;;;;;;;;;;28.70;45.60;;;27.76;47.45;101262.16;12139977;19;19922;-87
2023/09/16 12:52:30;;;;;;;;;;;28.70;45.70;;;27.77;47.38;101230.78;12144591;19;20002;-88
2023/09/16 12:56:35;;;;;;;;;;;28.80;45.20;;;27.89;47.02;101245.41;12144300;19;19998;-88
2023/09/16 13:00:37;;;;;;;;;;;28.80;45.30;;;27.87;47.23;101235.88;12133965;19;20475;-87
2023/09/16 13:04:38;;;;;;;;;;;28.80;44.90;;;27.96;47.39;101235.59;12143243;19;19929;-88
2023/09/16 13:08:41;;;;;;;;;;;28.90;44.20;;;27.94;47.24;101220.69;12137457;19;20325;-86
2023/09/16 13:12:42;;;;;;;;;;;28.90;44.90;;;27.95;47.12;101217.84;12144072;19;19926;-86
2023/09/16 13:16:44;;;;;;;;;;;29.00;45.10;;;28.09;47.01;101226.06;12142819;19;20212;-86
2023/09/16 13:20:52;;;;;;;;;;;29.00;44.70;;;28.07;46.96;101210.13;12138903;19;20224;-86
2023/09/16 13:24:53;;;;;;;;;;;29.00;43.90;;;28.18;47.14;101223.06;12138849;19;19922;-88
2023/09/16 13:29:03;;;;;;;;;;;29.10;44.90;;;28.23;47.18;101215.28;12143449;19;19929;-86
2023/09/16 13:33:05;;;;;;;;;;;29.10;45.10;;;28.22;46.47;101200.19;12144776;19;20753;-86
2023/09/16 13:37:07;;;;;;;;;;;29.10;44.90;;;28.30;46.80;101204.63;12143212;19;20557;-86
2023/09/16 13:41:09;;;;;;;;;;;29.10;44.40;;;28.32;46.86;101196.34;12140255;19;21066;-86
2023/09/16 13:45:10;;;;;;;;;;;29.20;44.80;;;28.36;46.62;101200.34;12141213;19;20229;-86
2023/09/16 13:49:12;;;;;;;;;;;29.20;44.70;;;28.39;46.50;101192.72;12143581;19;19915;-86
2023/09/16 13:53:15;;;;;;;;;;;29.20;44.90;;;28.44;46.05;101195.69;12143638;19;20246;-85
2023/09/16 13:57:17;;;;;;;;;;;29.30;44.30;;;28.47;46.10;101188.28;12141222;19;19919;-86
2023/09/16 14:01:19;;;;;;;;;;;29.30;44.50;;;28.53;46.39;101188.34;12134736;19;20279;-85
2023/09/16 14:05:20;;;;;;;;;;;29.30;44.20;;;28.52;46.36;101177.81;12141996;19;20383;-86
2023/09/16 14:09:22;;;;;;;;;;;29.30;44.20;;;28.58;46.35;101185.91;12137167;19;19927;-86
2023/09/16 14:13:23;;;;;;;;;;;29.30;44.40;;;28.55;45.92;101170.19;12141775;19;19926;-86
2023/09/16 14:17:25;;;;;;;;;;;29.30;44.40;;;28.54;46.16;101179.25;12139025;19;19922;-88
2023/09/16 14:21:26;;;;;;;;;;;29.30;44.00;;;28.52;46.08;101167.06;12132303;19;20267;-87
2023/09/16 14:25:29;;;;;;;;;;;29.30;44.00;;;28.54;45.90;101163.13;12137597;19;21170;-87
2023/09/16 14:29:31;;;;;;;;;;;29.40;44.10;;;28.57;45.94;101168.13;12136565;19;20821;-87
2023/09/16 14:33:35;;;;;;;;;;;29.30;44.40;;;28.58;45.82;101169.78;12139530;19;20396;-88
2023/09/16 14:37:37;;;;;;;;;;;29.30;44.10;;;28.56;45.87;101160.25;12139448;19;20259;-87
2023/09/16 14:41:38;;;;;;;;;;;29.30;44.30;;;28.53;46.03;101150.72;12137135;19;19919;-87
2023/09/16 14:45:41;;;;;;;;;;;29.30;44.20;;;28.48;45.76;101141.56;12136105;19;20220;-87
2023/09/16 14:49:43;;;;;;;;;;;29.30;44.60;;;28.62;45.75;101162.16;12130612;19;20273;-87
2023/09/16 14:53:45;;;;;;;;;;;29.30;44.20;;;28.55;45.45;101143.31;12133047;19;20498;-87
2023/09/16 14:57:46;;;;;;;;;;;29.30;42.90;;;28.63;45.52;101156.59;12135307;19;19933;-86
2023/09/16 15:01:48;;;;;;;;;;;29.30;43.90;;;28.61;45.88;101141.69;12133627;19;20755;-87
2023/09/16 15:05:50;;;;;;;;;;;29.40;44.00;;;28.65;45.57;101149.19;12138749;19;21044;-86
2023/09/16 15:09:52;;;;;;;;;;;29.30;44.10;;;28.67;45.37;101144.44;12135240;19;20998;-86
2023/09/16 15:13:54;;;;;;;;;;;29.40;44.20;;;28.61;45.67;101142.53;12140657;19;20661;-86
2023/09/16 15:17:55;;;;;;;;;;;29.40;44.40;;;28.59;45.09;101120.38;12135782;19;19927;-86
2023/09/16 15:21:57;;;;;;;;;;;29.40;44.20;;;28.67;45.26;101136.38;12138345;19;20304;-87
2023/09/16 15:26:03;;;;;;;;;;;29.40;44.30;;;28.61;45.34;101129.09;12135740;19;20200;-86
2023/09/16 15:30:09;;;;;;;;;;;29.30;44.20;;;28.64;44.79;101131.38;12134812;19;19919;-86
2023/09/16 15:34:11;;;;;;;;;;;29.30;44.20;;;28.62;45.26;101130.75;12134779;19;19937;-87
2023/09/16 15:38:15;;;;;;;;;;;29.30;44.10;;;28.59;44.89;101124.94;12136862;19;20176;-86
2023/09/16 15:42:17;;;;;;;;;;;29.30;44.30;;;28.45;45.43;101107.88;12138469;19;20515;-89
2023/09/16 15:46:18;;;;;;;;;;;29.30;44.20;;;28.56;45.16;101123.47;12127917;19;20702;-88
2023/09/16 15:50:19;;;;;;;;;;;29.30;44.10;;;28.51;45.19;101128.56;12128176;19;19927;-88
2023/09/16 15:54:21;;;;;;;;;;;29.30;44.10;;;28.47;45.38;101130.00;12104695;19;19923;-87
2023/09/16 15:58:23;;;;;;;;;;;29.20;44.00;;;28.41;44.94;101120.81;12129078;19;19915;-87
2023/09/16 16:02:24;;;;;;;;;;;29.10;44.10;;;28.44;45.13;101125.84;12126965;19;19927;-86
2023/09/16 16:06:26;;;;;;;;;;;29.10;44.20;;;28.41;44.73;101126.19;12111281;19;19923;-86
2023/09/16 16:10:29;;;;;;;;;;;29.10;44.30;;;28.28;44.89;101101.06;12088276;19;19919;-87
2023/09/16 16:14:30;;;;;;;;;;;29.00;44.20;;;28.38;45.01;101123.03;12112913;19;19918;-88
2023/09/16 16:18:32;;;;;;;;;;;29.00;44.30;;;28.34;45.07;101122.59;12129043;19;19961;-86
2023/09/16 16:22:33;;;;;;;;;;;29.00;44.40;;;28.19;44.83;101106.56;12131593;19;20313;-85
2023/09/16 16:26:37;;;;;;;;;;;28.90;44.50;;;28.21;44.73;101120.63;12135226;19;19918;-86
2023/09/16 16:30:39;;;;;;;;;;;28.90;44.50;;;28.15;44.67;101118.69;12137425;19;19951;-85
2023/09/16 16:34:41;;;;;;;;;;;28.80;44.50;;;28.16;44.63;101123.03;12139179;19;19954;-87
2023/09/16 16:38:43;;;;;;;;;;;28.80;44.60;;;28.11;45.16;101130.00;12140462;19;19937;-86
2023/09/16 16:42:45;;;;;;;;;;;28.70;44.60;;;27.90;44.82;101096.75;12152566;19;20310;-86
2023/09/16 16:46:47;;;;;;;;;;;28.60;44.60;;;27.95;44.62;101121.19;12153023;19;19990;-85
2023/09/16 16:50:49;;;;;;;;;;;28.60;44.70;;;27.93;45.00;101127.75;12148713;19;20191;-86
2023/09/16 16:54:51;;;;;;;;;;;28.50;44.60;;;27.85;44.85;101125.19;12153762;19;20487;-86
2023/09/16 16:58:53;;;;;;;;;;;28.40;44.70;;;27.74;44.80;101124.63;12147974;19;19950;-86
2023/09/16 17:02:54;;;;;;;;;;;28.30;44.70;;;27.61;44.63;101118.25;12154657;19;20256;-87
2023/09/16 17:06:56;;;;;;;;;;;28.10;44.60;;;27.50;44.49;101127.59;12150365;19;19923;-86
2023/09/16 17:10:57;;;;;;;;;;;28.00;44.60;;;27.36;44.74;101126.59;12147355;19;20363;-86
2023/09/16 17:14:59;;;;;;;;;;;28.00;44.70;;;27.24;44.63;101123.53;12153642;19;19918;-86
2023/09/16 17:19:00;;;;;;;;;;;27.80;44.60;;;27.19;44.58;101139.34;12149050;19;19926;-86
2023/09/16 17:23:02;;;;;;;;;;;27.70;44.60;;;26.98;44.67;101121.28;12151562;19;19942;-86
2023/09/16 17:27:03;;;;;;;;;;;27.60;44.70;;;26.99;44.79;101143.53;12147032;19;19915;-87
2023/09/16 17:31:05;;;;;;;;;;;27.40;44.70;;;26.84;44.88;101146.19;12142456;19;20322;-87
2023/09/16 17:35:08;;;;;;;;;;;27.30;44.60;;;26.55;44.66;101123.66;12150012;19;20657;-87
2023/09/16 17:39:09;;;;;;;;;;;27.20;44.60;;;26.61;44.92;101148.91;12145915;19;20028;-87
2023/09/16 17:43:11;;;;;;;;;;;27.00;44.60;;;26.46;44.35;101155.00;12148424;19;20868;-87
2023/09/16 17:47:14;;;;;;;;;;;26.90;44.70;;;26.40;44.77;101160.22;12145453;19;20436;-87
2023/09/16 17:51:16;;;;;;;;;;;26.80;44.80;;;26.24;44.73;101145.09;12139256;19;19990;-87
2023/09/16 17:55:18;;;;;;;;;;;26.70;44.80;;;26.15;44.83;101149.69;12145591;19;19926;-87
2023/09/16 17:59:20;;;;;;;;;;;26.60;44.80;;;26.01;44.70;101150.44;12144316;19;20212;-87
2023/09/16 18:03:21;;;;;;;;;;;26.40;44.80;;;25.95;44.88;101165.38;12143979;19;19930;-87
2023/09/16 18:07:24;;;;;;;;;;;26.30;44.90;;;25.81;45.12;101164.19;12144765;19;20747;-87
2023/09/16 18:11:25;;;;;;;;;;;26.20;44.90;;;25.73;44.69;101166.91;12133827;19;20462;-88